createdAt,value
2023-04-23T00:02:00.435Z,1.56
2023-04-23T00:04:48.803Z,1.58
2023-04-23T00:07:36.229Z,1.58
2023-04-23T00:10:24.244Z,1.57
2023-04-23T00:13:11.304Z,1.46
2023-04-23T00:15:58.944Z,1.29
2023-04-23T00:18:45.935Z,1.53
2023-04-23T00:21:33.427Z,1.51
2023-04-23T00:24:20.484Z,1.50
2023-04-23T00:27:07.525Z,1.50
2023-04-23T00:29:54.586Z,1.48
2023-04-23T00:32:41.717Z,1.50
2023-04-23T00:35:28.630Z,1.49
2023-04-23T00:38:15.732Z,1.46
2023-04-23T00:41:02.719Z,1.48
2023-04-23T00:43:50.063Z,1.47
2023-04-23T00:46:37.719Z,1.49
2023-04-23T00:49:24.930Z,1.24
2023-04-23T00:52:12.081Z,1.43
2023-04-23T00:54:59.049Z,1.45
2023-04-23T00:57:46.530Z,1.50
2023-04-23T01:00:34.113Z,1.48
2023-04-23T01:03:21.089Z,1.49
2023-04-23T01:06:08.468Z,1.12
2023-04-23T01:08:55.468Z,1.27
2023-04-23T01:11:42.595Z,1.43
2023-04-23T01:14:30.347Z,1.49
2023-04-23T01:17:17.607Z,1.50
2023-04-23T01:20:04.884Z,1.51
2023-04-23T01:22:53.194Z,1.51
2023-04-23T01:25:40.252Z,1.53
2023-04-23T01:28:27.892Z,1.35
2023-04-23T01:31:16.037Z,1.53
2023-04-23T01:34:04.460Z,1.53
2023-04-23T01:36:51.795Z,1.56
2023-04-23T01:39:38.831Z,1.57
2023-04-23T01:42:26.480Z,1.57
2023-04-23T01:45:14.544Z,1.57
2023-04-23T01:48:01.756Z,1.60
2023-04-23T01:50:49.841Z,1.60
2023-04-23T01:53:36.940Z,1.61
2023-04-23T01:56:24.085Z,1.62
2023-04-23T01:59:11.134Z,1.55
2023-04-23T02:02:05.172Z,1.63
2023-04-23T02:04:54.253Z,1.63
2023-04-23T02:07:41.255Z,1.63
2023-04-23T02:10:28.879Z,1.64
2023-04-23T02:13:17.183Z,1.63
2023-04-23T02:16:04.130Z,1.62
2023-04-23T02:18:51.172Z,1.54
2023-04-23T02:21:38.185Z,1.62
2023-04-23T02:24:25.477Z,1.63
2023-04-23T02:27:12.405Z,1.62
2023-04-23T02:30:00.256Z,1.62
2023-04-23T02:32:47.336Z,1.61
2023-04-23T02:35:34.298Z,1.64
2023-04-23T02:38:21.231Z,1.62
2023-04-23T02:41:10.834Z,1.53
2023-04-23T02:43:57.770Z,1.48
2023-04-23T02:46:45.113Z,1.38
2023-04-23T02:49:32.116Z,1.63
2023-04-23T02:52:19.113Z,1.62
2023-04-23T02:55:06.061Z,1.63
2023-04-23T02:57:53.291Z,1.60
2023-04-23T03:00:40.724Z,1.62
2023-04-23T03:03:27.774Z,1.62
2023-04-23T03:06:14.801Z,1.55
2023-04-23T03:09:01.666Z,1.59
2023-04-23T03:11:48.805Z,1.59
2023-04-23T03:14:36.097Z,1.60
2023-04-23T03:17:23.073Z,1.58
2023-04-23T03:20:10.294Z,1.58
2023-04-23T03:22:58.160Z,1.57
2023-04-23T03:25:45.464Z,1.56
2023-04-23T03:28:32.608Z,1.57
2023-04-23T03:31:19.724Z,1.58
2023-04-23T03:34:06.621Z,1.44
2023-04-23T03:36:55.422Z,1.55
2023-04-23T03:39:42.575Z,1.56
2023-04-23T03:42:31.213Z,1.57
2023-04-23T03:45:18.328Z,1.57
2023-04-23T03:48:05.451Z,1.57
2023-04-23T03:50:52.912Z,1.40
2023-04-23T03:53:57.117Z,1.57
2023-04-23T03:57:02.769Z,1.57
2023-04-23T03:59:54.805Z,1.57
2023-04-23T04:02:42.005Z,1.57
2023-04-23T04:05:29.842Z,1.60
2023-04-23T04:08:16.756Z,1.58
2023-04-23T04:11:03.758Z,1.61
2023-04-23T04:13:50.582Z,1.61
2023-04-23T04:16:37.689Z,1.65
2023-04-23T04:19:24.562Z,1.65
2023-04-23T04:22:11.602Z,1.67
2023-04-23T04:24:58.530Z,1.70
2023-04-23T04:27:45.451Z,1.71
2023-04-23T04:30:32.567Z,1.73
2023-04-23T04:33:19.635Z,1.75
2023-04-23T04:36:06.921Z,1.79
2023-04-23T04:38:53.899Z,1.82
2023-04-23T04:41:41.114Z,1.84
2023-04-23T04:44:31.287Z,1.87
2023-04-23T04:47:18.190Z,1.89
2023-04-23T04:50:05.503Z,1.92
2023-04-23T04:52:52.455Z,1.95
2023-04-23T04:55:39.715Z,1.99
2023-04-23T04:58:26.715Z,2.02
2023-04-23T05:01:13.891Z,2.06
2023-04-23T05:04:01.163Z,1.89
2023-04-23T05:06:48.353Z,2.08
2023-04-23T05:09:35.305Z,2.10
2023-04-23T05:12:22.523Z,2.18
2023-04-23T05:15:09.652Z,2.20
2023-04-23T05:17:57.667Z,2.27
2023-04-23T05:20:44.645Z,2.32
2023-04-23T05:23:31.622Z,2.36
2023-04-23T05:26:18.746Z,2.41
2023-04-23T05:29:05.709Z,2.42
2023-04-23T05:31:52.618Z,2.46
2023-04-23T05:34:40.002Z,2.53
2023-04-23T05:37:27.073Z,2.57
2023-04-23T05:40:14.105Z,2.62
2023-04-23T05:43:01.080Z,2.68
2023-04-23T05:45:48.741Z,2.69
2023-04-23T05:48:35.708Z,2.71
2023-04-23T05:51:22.781Z,2.82
2023-04-23T05:54:09.799Z,2.39
2023-04-23T05:56:56.735Z,2.89
2023-04-23T05:59:43.608Z,2.84
2023-04-23T06:02:31.065Z,2.97
2023-04-23T06:05:18.302Z,3.02
2023-04-23T06:08:05.325Z,3.06
2023-04-23T06:10:52.322Z,3.08
2023-04-23T06:13:40.114Z,3.17
2023-04-23T06:16:29.116Z,3.22
2023-04-23T06:19:16.995Z,3.22
2023-04-23T06:22:03.901Z,3.32
2023-04-23T06:24:50.765Z,3.37
2023-04-23T06:27:37.756Z,3.42
2023-04-23T06:30:31.747Z,3.47
2023-04-23T06:33:19.156Z,3.53
2023-04-23T06:36:06.217Z,3.06
2023-04-23T06:38:53.209Z,3.58
2023-04-23T06:41:40.540Z,3.58
2023-04-23T06:44:33.953Z,3.68
2023-04-23T06:47:21.053Z,3.78
2023-04-23T06:50:07.926Z,3.67
2023-04-23T06:52:55.504Z,3.89
2023-04-23T06:55:42.472Z,3.87
2023-04-23T06:58:29.597Z,3.92
2023-04-23T07:01:17.068Z,4.07
2023-04-23T07:04:04.175Z,4.12
2023-04-23T07:06:51.033Z,4.22
2023-04-23T07:09:38.224Z,4.27
2023-04-23T07:12:25.305Z,4.30
2023-04-23T07:15:12.212Z,4.36
2023-04-23T07:17:59.165Z,4.40
2023-04-23T07:20:46.130Z,4.22
2023-04-23T07:23:33.181Z,4.52
2023-04-23T07:26:20.174Z,4.57
2023-04-23T07:29:07.171Z,4.52
2023-04-23T07:31:54.312Z,4.66
2023-04-23T07:34:41.653Z,4.70
2023-04-23T07:37:28.706Z,4.74
2023-04-23T07:40:15.608Z,4.77
2023-04-23T07:43:02.625Z,4.80
2023-04-23T07:45:49.541Z,4.83
2023-04-23T07:48:36.561Z,4.86
2023-04-23T07:51:23.669Z,4.82
2023-04-23T07:54:10.603Z,4.91
2023-04-23T07:56:57.780Z,4.94
2023-04-23T07:59:44.915Z,4.96
2023-04-23T08:02:31.998Z,4.99
2023-04-23T08:05:19.172Z,5.02
2023-04-23T08:08:06.148Z,5.05
2023-04-23T08:10:53.217Z,5.06
2023-04-23T08:13:40.168Z,5.02
2023-04-23T08:16:27.123Z,5.11
2023-04-23T08:19:14.083Z,5.13
2023-04-23T08:22:01.021Z,5.18
2023-04-23T08:24:47.921Z,5.24
2023-04-23T08:27:34.787Z,5.29
2023-04-23T08:30:21.859Z,4.85
2023-04-23T08:33:10.872Z,5.38
2023-04-23T08:35:57.778Z,5.35
2023-04-23T08:38:45.173Z,5.48
2023-04-23T08:41:38.295Z,5.50
2023-04-23T08:44:25.221Z,5.32
2023-04-23T08:47:14.600Z,5.54
2023-04-23T08:50:02.088Z,5.56
2023-04-23T08:52:54.472Z,5.58
2023-04-23T08:55:42.750Z,5.60
2023-04-23T08:58:29.972Z,5.59
2023-04-23T09:01:18.749Z,5.61
2023-04-23T09:04:07.102Z,5.56
2023-04-23T09:06:54.598Z,5.65
2023-04-23T09:09:43.785Z,5.67
2023-04-23T09:12:30.864Z,5.69
2023-04-23T09:15:17.893Z,5.71
2023-04-23T09:18:06.770Z,5.64
2023-04-23T09:20:53.819Z,5.69
2023-04-23T09:23:43.218Z,5.42
2023-04-23T09:26:30.284Z,5.62
2023-04-23T09:29:17.213Z,5.62
2023-04-23T09:32:06.992Z,5.62
2023-04-23T09:34:56.061Z,5.64
2023-04-23T09:37:46.497Z,5.66
2023-04-23T09:40:34.541Z,5.69
2023-04-23T09:43:24.025Z,5.77
2023-04-23T09:46:10.962Z,5.77
2023-04-23T09:49:04.118Z,5.86
2023-04-23T09:51:51.517Z,5.87
2023-04-23T09:54:44.748Z,5.51
2023-04-23T09:57:32.029Z,5.98
2023-04-23T10:00:19.390Z,6.01
2023-04-23T10:03:08.616Z,6.01
2023-04-23T10:06:02.566Z,5.56
2023-04-23T10:08:51.790Z,6.00
2023-04-23T10:11:38.842Z,5.87
2023-04-23T10:14:26.265Z,6.01
2023-04-23T10:17:23.793Z,6.06
2023-04-23T10:20:12.185Z,5.93
2023-04-23T10:23:01.070Z,6.03
2023-04-23T10:25:48.555Z,5.98
2023-04-23T10:28:39.483Z,6.01
2023-04-23T10:31:26.839Z,5.98
2023-04-23T10:34:16.449Z,6.00
2023-04-23T10:37:03.629Z,5.97
2023-04-23T10:39:53.269Z,5.96
2023-04-23T10:42:40.844Z,5.79
2023-04-23T10:45:34.875Z,5.99
2023-04-23T10:48:21.784Z,6.02
2023-04-23T10:52:05.831Z,6.05
2023-04-23T10:54:25.399Z,6.08
2023-04-23T10:57:19.723Z,6.09
2023-04-23T11:00:14.778Z,5.83
2023-04-23T11:03:05.072Z,6.09
2023-04-23T11:05:55.241Z,5.92
2023-04-23T11:08:42.308Z,6.03
2023-04-23T11:11:29.395Z,6.14
2023-04-23T11:14:16.466Z,6.04
2023-04-23T11:17:03.368Z,6.11
2023-04-23T11:19:50.696Z,6.07
2023-04-23T11:22:37.599Z,6.00
2023-04-23T11:25:28.672Z,5.79
2023-04-23T11:28:16.974Z,5.88
2023-04-23T11:31:03.952Z,5.80
2023-04-23T11:33:51.051Z,5.65
2023-04-23T11:36:38.152Z,5.78
2023-04-23T11:39:25.081Z,5.74
2023-04-23T11:42:12.066Z,5.64
2023-04-23T11:45:03.141Z,5.67
2023-04-23T11:47:50.324Z,5.64
2023-04-23T11:50:38.981Z,5.62
2023-04-23T11:53:28.329Z,5.58
2023-04-23T11:56:15.285Z,5.54
2023-04-23T11:59:02.383Z,5.38
2023-04-23T12:02:13.174Z,5.10
2023-04-23T12:05:00.361Z,5.52
2023-04-23T12:07:53.121Z,5.51
2023-04-23T12:10:41.569Z,5.52
2023-04-23T12:13:41.451Z,5.53
2023-04-23T12:16:28.454Z,5.53
2023-04-23T12:19:15.352Z,5.51
2023-04-23T12:22:16.707Z,5.50
2023-04-23T12:25:08.914Z,5.41
2023-04-23T12:28:04.283Z,5.45
2023-04-23T12:30:52.968Z,5.04
2023-04-23T12:33:40.925Z,5.42
2023-04-23T12:36:31.927Z,5.31
2023-04-23T12:39:40.919Z,5.41
2023-04-23T12:42:28.362Z,5.38
2023-04-23T12:45:18.049Z,5.38
2023-04-23T12:48:05.014Z,5.35
2023-04-23T12:50:52.196Z,5.34
2023-04-23T12:53:39.116Z,5.33
2023-04-23T12:56:26.184Z,5.30
2023-04-23T12:59:13.223Z,5.27
2023-04-23T13:02:00.293Z,5.24
2023-04-23T13:04:47.568Z,5.24
2023-04-23T13:07:34.706Z,5.22
2023-04-23T13:10:21.598Z,5.18
2023-04-23T13:13:08.480Z,5.13
2023-04-23T13:15:55.493Z,5.06
2023-04-23T13:18:42.491Z,5.07
2023-04-23T13:21:30.495Z,5.01
2023-04-23T13:24:17.429Z,4.95
2023-04-23T13:27:04.407Z,4.76
2023-04-23T13:29:51.324Z,4.76
2023-04-23T13:32:38.306Z,4.66
2023-04-23T13:35:25.608Z,4.59
2023-04-23T13:38:12.551Z,4.49
2023-04-23T13:40:59.420Z,4.25
2023-04-23T13:43:46.383Z,4.08
2023-04-23T13:46:33.313Z,4.32
2023-04-23T13:49:20.410Z,4.28
2023-04-23T13:52:07.387Z,4.24
2023-04-23T13:54:54.648Z,4.16
2023-04-23T13:57:41.572Z,4.16
2023-04-23T14:00:29.025Z,4.11
2023-04-23T14:03:16.159Z,4.05
2023-04-23T14:06:03.213Z,4.01
2023-04-23T14:08:50.308Z,3.93
2023-04-23T14:11:37.461Z,3.83
2023-04-23T14:14:24.374Z,3.72
2023-04-23T14:17:11.247Z,3.64
2023-04-23T14:19:58.243Z,3.51
2023-04-23T14:22:45.236Z,3.46
2023-04-23T14:25:43.688Z,3.42
2023-04-23T14:28:59.659Z,3.42
2023-04-23T14:31:46.607Z,3.32
2023-04-23T14:34:33.491Z,3.30
2023-04-23T14:37:20.630Z,3.15
2023-04-23T14:40:07.705Z,2.96
2023-04-23T14:42:56.941Z,2.90
2023-04-23T14:45:46.412Z,2.79
2023-04-23T14:48:33.417Z,2.66
2023-04-23T14:51:20.266Z,2.59
2023-04-23T14:54:07.143Z,2.47
2023-04-23T14:56:54.143Z,2.40
2023-04-23T14:59:41.770Z,2.34
2023-04-23T15:02:29.211Z,2.26
2023-04-23T15:05:17.017Z,2.18
2023-04-23T15:08:03.992Z,2.13
2023-04-23T15:10:51.020Z,1.59
